GW5916 Weather Reports


time (UTC)temp
F
wind
direction
speed
knots
gust
knots
rain 1hr
in
rain 24hr
in
rain mn
in
humidity
%
barometer
mb
20260502224650 63 241 1.7 5.2 0.00 0.00 0.00 33 1061.9
20260502224147 65 281 1.7 4.3 0.00 0.00 0.00 33 1061.9
20260502223645 64 227 1.7 4.3 0.00 0.00 0.00 33 1062.0
20260502223142 65 343 3.5 5.2 0.00 0.00 0.00 32 1061.9
20260502222639 65 217 1.7 7.0 0.00 0.00 0.00 33 1062.0
20260502222136 65 220 1.7 3.5 0.00 0.00 0.00 31 1062.0
20260502221632 65 304 2.6 3.5 0.00 0.00 0.00 32 1062.1
20260502221129 65 89 0.0 5.2 0.00 0.00 0.00 32 1062.1
20260502220626 65 267 1.7 6.1 0.00 0.00 0.00 32 1062.3
20260502220122 63 87 1.7 7.0 0.00 0.00 0.00 33 1062.3
20260502215619 64 73 2.6 5.2 0.00 0.00 0.00 33 1062.4
20260502215116 64 329 2.6 4.3 0.00 0.00 0.00 31 1062.4
20260502214613 63 276 3.5 6.1 0.00 0.00 0.00 33 1062.4
20260502214110 64 277 1.7 5.2 0.00 0.00 0.00 32 1062.5
20260502213608 65 61 1.7 3.5 0.00 0.00 0.00 32 1062.5
20260502213104 63 240 3.5 10.4 0.00 0.00 0.00 33 1062.8
20260502212603 64 75 0.9 6.1 0.00 0.00 0.00 34 1062.9
20260502212101 63 271 2.6 5.2 0.00 0.00 0.00 33 1062.7
20260502211556 65 315 3.5 5.2 0.00 0.00 0.00 31 1062.9
20260502211054 65 314 4.3 7.8 0.00 0.00 0.00 31 1062.9
20260502210550 64 312 3.5 10.4 0.00 0.00 0.00 31 1063.1
20260502210047 64 259 2.6 6.1 0.00 0.00 0.00 32 1063.1
20260502205544 64 267 1.7 7.8 0.00 0.00 0.00 31 1063.1
20260502205041 66 4 5.2 9.6 0.00 0.00 0.00 31 1063.2
20260502204538 64 238 2.6 8.7 0.00 0.00 0.00 31 1063.3
20260502204036 64 332 1.7 7.0 0.00 0.00 0.00 31 1063.4
20260502203532 64 50 1.7 9.6 0.00 0.00 0.00 32 1063.4
20260502203029 62 298 5.2 6.1 0.00 0.00 0.00 33 1063.6
20260502202525 62 351 1.7 6.1 0.00 0.00 0.00 33 1063.8
20260502202024 63 286 5.2 5.2 0.00 0.00 0.00 30 1063.8
20260502201520 63 264 3.5 9.6 0.00 0.00 0.00 30 1063.7
20260502201016 63 344 1.7 4.3 0.00 0.00 0.00 31 1064.0
20260502200512 64 261 2.6 8.7 0.00 0.00 0.00 30 1063.9
20260502200011 63 168 1.7 7.8 0.00 0.00 0.00 33 1064.0
20260502195508 63 316 1.7 4.3 0.00 0.00 0.00 32 1064.2
20260502195003 63 210 3.5 5.2 0.00 0.00 0.00 33 1064.2
20260502194500 62 188 0.9 5.2 0.00 0.00 0.00 30 1064.3
20260502193956 62 233 2.6 3.5 0.00 0.00 0.00 32 1064.5
20260502193454 62 53 0.9 7.8 0.00 0.00 0.00 33 1064.4
20260502192949 61 223 5.2 10.4 0.00 0.00 0.00 32 1064.5
20260502192446 62 326 0.9 9.6 0.00 0.00 0.00 32 1064.6
20260502191943 62 276 2.6 8.7 0.00 0.00 0.00 32 1064.8
20260502191441 62 222 7.8 9.6 0.00 0.00 0.00 32 1064.8
20260502190938 62 21 1.7 5.2 0.00 0.00 0.00 33 1064.8
20260502190435 62 143 1.7 4.3 0.00 0.00 0.00 33 1065.0
20260502185932 61 346 1.7 6.1 0.00 0.00 0.00 33 1065.1
20260502185427 61 302 1.7 9.6 0.00 0.00 0.00 33 1065.0
20260502184925 62 158 1.7 5.2 0.00 0.00 0.00 33 1065.2
20260502184420 61 220 4.3 12.2 0.00 0.00 0.00 33 1065.4
20260502183917 60 162 1.7 9.6 0.00 0.00 0.00 33 1065.6
20260502183413 61 228 1.7 13.0 0.00 0.00 0.00 33 1065.6
20260502182908 61 323 2.6 4.3 0.00 0.00 0.00 33 1065.5
20260502182404 60 290 1.7 6.1 0.00 0.00 0.00 33 1065.7
20260502181900 60 335 3.5 7.0 0.00 0.00 0.00 34 1065.9
20260502181359 60 259 3.5 7.0 0.00 0.00 0.00 34 1065.9
20260502180857 59 237 1.7 5.2 0.00 0.00 0.00 35 1066.0
20260502180354 58 223 2.6 10.4 0.00 0.00 0.00 34 1066.1
20260502170318 58 357 7.8 7.8 0.00 0.00 0.00 35 1066.7
20260502164306 57 352 3.5 7.8 0.00 0.00 0.00 34 1066.8
20260502163801 57 348 3.5 5.2 0.00 0.00 0.00 37 1066.9
20260502163258 57 18 1.7 7.0 0.00 0.00 0.00 36 1067.1
20260502162755 58 328 2.6 8.7 0.00 0.00 0.00 33 1066.9
20260502162252 58 267 4.3 5.2 0.00 0.00 0.00 35 1067.1
20260502161749 58 170 0.0 5.2 0.00 0.00 0.00 36 1067.0
20260502161246 57 319 1.7 9.6 0.00 0.00 0.00 37 1067.1
20260502160744 57 207 1.7 6.1 0.00 0.00 0.00 36 1067.0
20260502160243 57 312 3.5 7.8 0.00 0.00 0.00 35 1067.2
20260502152212 56 341 3.5 7.8 0.00 0.00 0.00 37 1067.3
20260502151709 55 329 4.3 8.7 0.00 0.00 0.00 37 1067.1
20260502151206 55 246 1.7 5.2 0.00 0.00 0.00 38 1067.5
20260502150703 55 96 3.5 10.4 0.00 0.00 0.00 38 1067.5
20260502150200 55 30 1.7 6.1 0.00 0.00 0.00 39 1067.5
20260502140123 52 313 0.0 5.2 0.00 0.00 0.00 47 1067.8
20260502130548 46 279 5.2 6.1 0.00 0.00 0.00 54 1067.9
20260502123531 43 85 1.7 2.6 0.00 0.00 0.00 57 1067.7
20260502123028 42 246 1.7 3.5 0.00 0.00 0.00 57 1067.7
20260502122525 42 182 0.9 3.5 0.00 0.00 0.00 58 1067.8
20260502122022 41 171 1.7 3.5 0.00 0.00 0.00 59 1067.7
20260502121519 41 207 1.7 2.6 0.00 0.00 0.00 59 1067.8
20260502121017 40 244 2.6 3.5 0.00 0.00 0.00 61 1067.7
20260502120513 39 280 0.9 3.5 0.00 0.00 0.00 62 1067.6
20260502115508 38 246 2.6 2.6 0.00 0.00 0.00 63 1067.7
20260502115003 37 339 1.7 2.6 0.00 0.00 0.00 65 1067.6
20260502114500 37 102 0.9 3.5 0.00 0.00 0.00 64 1067.4
20260502113957 37 236 0.0 1.7 0.00 0.00 0.00 64 1067.5
20260502113455 37 124 0.0 1.7 0.00 0.00 0.00 65 1067.4
20260502112953 36 289 0.0 1.7 0.00 0.00 0.00 66 1067.4
20260502112450 36 47 0.0 2.6 0.00 0.00 0.00 67 1067.4
20260502111948 35 276 1.7 1.7 0.00 0.00 0.00 69 1067.6
20260502111445 35 180 0.0 1.7 0.00 0.00 0.00 69 1067.5
20260502110942 35 175 1.7 2.6 0.00 0.00 0.00 68 1067.4
20260502110440 35 286 0.0 2.6 0.00 0.00 0.00 69 1067.6
20260502105937 35 238 1.7 1.7 0.00 0.00 0.00 68 1067.6
20260502105434 35 228 0.9 1.7 0.00 0.00 0.00 69 1067.5
20260502104932 35 121 0.0 1.7 0.00 0.00 0.00 68 1067.6
20260502104429 35 250 1.7 2.6 0.00 0.00 0.00 68 1067.4
20260502103926 34 50 0.9 2.6 0.00 0.00 0.00 69 1067.4
20260502103424 34 63 0.0 1.7 0.00 0.00 0.00 69 1067.4
20260502102921 34 349 0.0 1.7 0.00 0.00 0.00 69 1067.4
20260502102417 35 58 0.0 1.7 0.00 0.00 0.00 68 1067.5
20260502101915 35 136 1.7 1.7 0.00 0.00 0.00 68 1067.4
20260502101413 35 176 0.0 1.7 0.00 0.00 0.00 68 1067.5
20260502100911 35 190 1.7 1.7 0.00 0.00 0.00 68 1067.4
20260502100410 35 267 1.7 1.7 0.00 0.00 0.00 68 1067.6
20260502091343 35 241 1.7 1.7 0.00 0.00 0.00 67 1067.5
20260502090841 35 117 0.0 1.7 0.00 0.00 0.00 67 1067.5
20260502090338 35 201 0.0 0.9 0.00 0.00 0.00 67 1067.3
20260502071233 38 199 1.7 1.7 0.00 0.00 0.00 59 1067.6
20260502070731 38 213 0.0 1.7 0.00 0.00 0.00 59 1067.7
20260502070228 38 183 0.9 1.7 0.00 0.00 0.00 59 1067.6
20260502065727 37 194 0.9 0.9 0.00 0.00 0.00 61 1067.7
20260502065224 37 122 0.0 0.9 0.00 0.00 0.00 61 1067.7
20260502064723 37 198 0.0 1.7 0.00 0.00 0.00 60 1067.8
20260502064220 38 167 0.9 1.7 0.00 0.00 0.00 60 1067.8
20260502063717 37 217 0.9 1.7 0.00 0.00 0.00 60 1067.9
20260502063215 37 154 0.0 0.9 0.00 0.00 0.00 62 1067.7
20260502062712 37 84 0.0 1.7 0.00 0.00 0.00 60 1067.8
20260502062210 38 240 0.0 0.9 0.00 0.00 0.00 60 1067.8
20260502061708 38 180 0.0 1.7 0.00 0.00 0.00 59 1067.8
20260502061205 37 181 0.0 0.9 0.00 0.00 0.00 60 1067.8
20260502060700 38 214 0.0 0.9 0.00 0.00 0.00 60 1067.7
20260502060157 38 214 0.9 0.9 0.00 0.00 0.00 59 1067.8
20260502055655 38 293 0.0 1.7 0.00 0.00 0.00 58 1067.8
20260502055152 37 189 0.0 1.7 0.00 0.00 0.00 61 1067.8
20260502054652 37 224 0.0 0.9 0.00 0.00 0.00 62 1067.6
20260502054148 37 44 0.0 1.7 0.00 0.00 0.00 61 1067.6
20260502053645 37 103 0.0 0.9 0.00 0.00 0.00 62 1067.8
20260502053142 37 103 0.0 0.0 0.00 0.00 0.00 62 1067.8
20260502052641 36 62 0.0 0.9 0.00 0.00 0.00 64 1067.6
20260502052138 36 122 0.0 0.9 0.00 0.00 0.00 64 1067.7
20260502051636 37 157 0.0 0.9 0.00 0.00 0.00 63 1067.8
20260502051134 36 124 0.0 0.9 0.00 0.00 0.00 65 1067.7
20260502050630 35 99 0.0 1.7 0.00 0.00 0.00 68 1067.6
20260502050127 36 89 0.0 1.7 0.00 0.00 0.00 66 1067.7
20260502045623 37 69 0.0 0.9 0.00 0.00 0.00 67 1067.7
20260502045121 37 57 0.0 0.0 0.00 0.00 0.00 68 1067.7
20260502044617 37 119 0.0 0.9 0.00 0.00 0.00 66 1067.7
20260502044114 37 103 0.0 0.0 0.00 0.00 0.00 63 1067.6
20260502043612 37 117 0.0 0.9 0.00 0.00 0.00 63 1067.6
20260502043109 37 49 0.0 0.0 0.00 0.00 0.00 65 1067.4
20260502042608 37 59 0.0 0.9 0.00 0.00 0.00 64 1067.7
20260502042106 37 164 0.0 0.9 0.00 0.00 0.00 65 1067.6
20260502041604 37 129 0.0 0.9 0.00 0.00 0.00 64 1067.7
20260502041101 36 110 0.0 0.9 0.00 0.00 0.00 65 1067.7
20260502040557 37 102 0.0 0.9 0.00 0.00 0.00 65 1067.6
20260502040055 38 145 0.0 0.9 0.00 0.00 0.00 65 1067.5
20260502035550 37 38 0.0 0.9 0.00 0.00 0.00 65 1067.6
20260502035048 37 65 0.0 0.9 0.00 0.00 0.00 66 1067.6
20260502034546 38 110 0.0 0.9 0.00 0.00 0.00 66 1067.8
20260502034044 39 145 0.0 0.0 0.00 0.00 0.00 62 1067.6
20260502033542 39 135 0.0 0.9 0.00 0.00 0.00 63 1067.5
20260502033039 39 110 0.9 0.9 0.00 0.00 0.00 63 1067.6
20260502032535 38 110 0.0 0.9 0.00 0.00 0.00 65 1067.6
20260502032031 38 82 0.0 0.9 0.00 0.00 0.00 63 1067.7
20260502031530 39 89 0.0 0.9 0.00 0.00 0.00 60 1067.8
20260502031027 39 69 0.0 0.0 0.00 0.00 0.00 59 1067.5
20260502030526 40 124 0.0 0.9 0.00 0.00 0.00 59 1067.6
20260502030023 41 133 0.9 0.9 0.00 0.00 0.00 56 1067.5
20260502025520 41 149 0.0 0.9 0.00 0.00 0.00 55 1067.5
20260502025019 41 135 0.0 1.7 0.00 0.00 0.00 55 1067.6
20260502024515 41 140 0.0 0.9 0.00 0.00 0.00 58 1067.6
20260502024014 40 128 0.0 0.0 0.00 0.00 0.00 60 1067.7
20260502023511 41 80 0.0 0.9 0.00 0.00 0.00 58 1067.5
20260502023008 41 76 0.0 0.0 0.00 0.00 0.00 60 1067.7
20260502022505 41 96 0.9 1.7 0.00 0.00 0.00 56 1067.6
20260502022002 41 141 0.0 0.9 0.00 0.00 0.00 56 1067.4
20260502021459 42 131 0.0 0.9 0.00 0.00 0.00 53 1067.6
20260502020956 42 130 0.0 0.9 0.00 0.00 0.00 50 1067.5
20260502020454 43 96 0.9 1.7 0.00 0.00 0.00 49 1067.4
20260502015950 43 57 0.9 1.7 0.00 0.00 0.00 48 1067.4
20260502015448 43 35 0.0 1.7 0.00 0.00 0.00 48 1067.3
20260502014944 44 30 0.0 0.9 0.00 0.00 0.00 47 1067.3
20260502014442 45 46 0.0 1.7 0.00 0.00 0.00 46 1067.0
20260502013938 45 60 0.0 1.7 0.00 0.00 0.00 45 1067.0
20260502013434 45 114 0.0 1.7 0.00 0.00 0.00 45 1067.1
20260502012930 46 55 0.0 1.7 0.00 0.00 0.00 43 1066.9
20260502012428 46 108 0.0 1.7 0.00 0.00 0.00 44 1067.1
20260502011925 46 79 1.7 1.7 0.00 0.00 0.00 42 1066.9
20260502011422 46 69 0.0 1.7 0.00 0.00 0.00 44 1067.1
20260502010919 46 107 1.7 2.6 0.00 0.00 0.00 44 1066.8
20260502010415 47 68 1.7 1.7 0.00 0.00 0.00 44 1066.9
20260502005912 47 29 2.6 4.3 0.00 0.00 0.00 41 1066.8
20260502005410 47 27 3.5 5.2 0.00 0.00 0.00 41 1066.9
20260502004908 47 45 2.6 3.5 0.00 0.00 0.00 41 1066.8
20260502004403 47 52 1.7 2.6 0.00 0.00 0.00 41 1066.8
20260502003900 48 19 5.2 7.0 0.00 0.00 0.00 39 1066.7
20260502003358 48 37 1.7 5.2 0.00 0.00 0.00 39 1066.5
20260502002854 48 25 5.2 9.6 0.00 0.00 0.00 38 1066.7
20260502002351 49 24 5.2 7.0 0.00 0.00 0.00 39 1066.7
20260502001848 48 16 5.2 7.8 0.00 0.00 0.00 39 1066.4
20260502001346 49 19 5.2 8.7 0.00 0.00 0.00 38 1066.7
20260502000843 50 342 4.3 8.7 0.00 0.00 0.00 37 1066.6
20260502000342 49 12 5.2 9.6 0.00 0.00 0.00 38 1066.5
20260501235837 49 15 5.2 8.7 0.00 0.00 0.00 39 1066.5
20260501235333 49 353 3.5 6.1 0.00 0.00 0.00 39 1066.5
20260501234828 49 10 4.3 7.8 0.00 0.00 0.00 39 1066.6
20260501234326 49 28 3.5 6.1 0.00 0.00 0.00 39 1066.3
20260501233825 50 42 1.7 7.8 0.00 0.00 0.00 38 1066.5
20260501233321 49 28 4.3 4.3 0.00 0.00 0.00 39 1066.5
20260501232817 49 23 3.5 5.2 0.00 0.00 0.00 39 1066.5
20260501232314 49 15 3.5 5.2 0.00 0.00 0.00 38 1066.2
20260501231812 50 23 4.3 6.1 0.00 0.00 0.00 38 1066.3
20260501231310 50 348 2.6 5.2 0.00 0.00 0.00 35 1066.4
20260501230808 50 355 3.5 5.2 0.00 0.00 0.00 37 1066.4
20260501230306 50 11 2.6 4.3 0.00 0.00 0.00 37 1066.4
20260501225803 49 17 2.6 4.3 0.00 0.00 0.00 37 1066.5
20260501225301 49 349 5.2 7.0 0.00 0.00 0.00 37 1066.6
20260501224757 49 19 6.1 7.8 0.00 0.00 0.00 38 1066.4